• Join FlightAware (Why Join?)
  • Login
  • US Flag GB Flag 
10:20 EDT


 

Airport Tracker/Info


-or-


 

Live Flight TrackerFlight Track Log ✈ N6036Y ✈ 09-Mar-2014 ✈ KTLH - KEVB

Flight Track Log - Related Links

Times and Time Zones

All times are in EDT time to prevent confusion due to time zone crossing. See the N6036Y flight status page for this flight to view local times or setup timezone preferences in your user account.

Time Position Orientation Groundspeed Altitude Reporting Facility
EDT Latitude Longitude Course Direction KTS MPH feet Rate Location/Type
00:06 30.3500 -84.3489 189° South 101 116 1,600  Level Jacksonville Center
00:07 30.3269 -84.3533 189° South 91 105 2,300 660 Climbing Jacksonville Center
00:08 30.3039 -84.3603 195° South 86 99 3,000 600 Climbing Jacksonville Center
00:09 30.2808 -84.3672 195° South 86 99 3,600 600 Climbing Jacksonville Center
00:10 30.2558 -84.3644 185° South 92 106 4,200 600 Climbing Jacksonville Center
00:11 30.2542 -84.3403 95° East 63 72 4,800 360 Climbing Jacksonville Center
00:12 30.2483 -84.3064 101° East 75 86 5,000  Climbing Jacksonville Center
00:13 30.2422 -84.2728 102° East 90 104 4,900 -60 Descending Jacksonville Center
00:14 30.2364 -84.2389 101° East 102 117 4,900  Level Jacksonville Center
00:15 30.2306 -84.2053 101° East 107 123 4,900  Level Jacksonville Center
00:16 30.2247 -84.1714 101° East 107 123 4,900  Level Jacksonville Center
00:17 30.2186 -84.1403 103° East 107 123 4,900  Level Jacksonville Center
00:18 30.2128 -84.1042 101° East 107 123 4,900  Level Jacksonville Center
00:19 30.2047 -84.0728 107° East 107 123 4,900  Level Jacksonville Center
00:20 30.1986 -84.0389 102° East 107 123 4,900  Level Jacksonville Center
00:21 30.1906 -84.0075 107° East 107 123 4,900  Level Jacksonville Center
00:22 30.1847 -83.9739 101° East 107 123 4,900  Level Jacksonville Center
00:23 30.1786 -83.9428 103° East 107 123 4,900  Level Jacksonville Center
00:24 30.1706 -83.9089 105° East 107 123 4,900  Level Jacksonville Center
00:25 30.1647 -83.8753 101° East 107 123 4,900  Level Jacksonville Center
00:26 30.1586 -83.8414 102° East 107 123 4,900  Level Jacksonville Center
00:27 30.1506 -83.8103 107° East 107 123 5,000  Climbing Jacksonville Center
00:28 30.1444 -83.7767 102° East 107 123 4,900 -60 Descending Jacksonville Center
00:29 30.1342 -83.7453 111° Southeast 107 123 4,900  Level Jacksonville Center
00:30 30.1303 -83.7117 98° East 107 123 5,000  Climbing Jacksonville Center
00:31 30.1242 -83.6803 103° East 107 123 5,000  Level Jacksonville Center
00:32 30.1203 -83.6467 98° East 107 123 5,000  Level Jacksonville Center
00:33 30.1119 -83.6131 106° East 107 123 5,000  Level Jacksonville Center
00:34 30.1081 -83.5842 99° East 107 123 5,000  Level Jacksonville Center
00:35 30.1000 -83.5506 105° East 107 123 5,000 -60 Level Jacksonville Center
00:36 30.0897 -83.5119 107° East 107 123 4,900 -60 Descending Jacksonville Center
00:37 30.0856 -83.4831 99° East 107 123 4,900  Level Jacksonville Center
00:38 30.0817 -83.4494 98° East 107 123 5,000  Climbing Jacksonville Center
00:39 30.0714 -83.4158 109° East 107 123 5,000 -60 Level Jacksonville Center
00:40 30.0631 -83.3822 106° East 107 123 4,900  Descending Jacksonville Center
00:41 30.0589 -83.3508 99° East 107 123 5,000  Climbing Jacksonville Center
00:42 30.0528 -83.3172 102° East 107 123 5,000  Level Jacksonville Center
00:43 30.0467 -83.2836 102° East 107 123 5,000  Level Jacksonville Center
00:44 30.0364 -83.2525 111° Southeast 107 123 5,000 120 Level Jacksonville Center
00:45 30.0303 -83.2214 103° East 107 123 5,300 420 Climbing Jacksonville Center
00:46 30.0261 -83.1925 99° East 101 116 5,900 540 Climbing Jacksonville Center
00:47 30.0200 -83.1614 103° East 96 110 6,400 420 Climbing Jacksonville Center
00:48 30.0158 -83.1325 99° East 96 110 6,800 300 Climbing Jacksonville Center
00:49 30.0094 -83.0964 102° East 96 110 7,000  Climbing Jacksonville Center
00:50 30.0033 -83.0581 100° East 108 124 6,900 -60 Descending Jacksonville Center
00:51 29.9950 -83.0222 105° East 113 130 6,900 60 Level Jacksonville Center
00:52 29.9867 -83.0006 114° Southeast 117 135 7,000 60 Climbing Jacksonville Center
00:52 29.9847 -82.9861 99° East 113 130 7,000  Level Jacksonville Center
00:53 29.9783 -82.9742 122° Southeast 113 130 7,000  Level Jacksonville Center
00:53 29.9764 -82.9500 95° East 113 130 7,000  Level Jacksonville Center
00:54 29.9722 -82.9381 112° Southeast 115 132 7,000  Level Jacksonville Center
00:54 29.9722 -82.9142 90° East 113 130 7,000  Level Jacksonville Center
00:55 29.9639 -82.9022 129° Southeast 113 130 7,000  Level Jacksonville Center
00:55 29.9639 -82.8781 90° East 113 130 7,000 60 Level Jacksonville Center
00:56 29.9575 -82.8639 117° Southeast 115 132 7,100  Climbing Jacksonville Center
00:56 29.9575 -82.8422 90° East 107 123 7,000 -120 Descending Jacksonville Center
00:57 29.9511 -82.8256 114° Southeast 116 133 7,000  Level Jacksonville Center
00:57 29.9469 -82.8086 106° East 107 123 7,000  Level Jacksonville Center
00:58 29.9428 -82.7919 106° East 115 132 7,000  Level Jacksonville Center
00:58 29.9408 -82.7703 96° East 107 123 7,000 60 Level Jacksonville Center
00:59 29.9367 -82.7558 108° East 113 130 7,100  Climbing Jacksonville Center
00:59 29.9344 -82.7344 97° East 107 123 7,000 -120 Descending Jacksonville Center
01:00 29.9281 -82.7225 122° Southeast 116 133 7,000  Level Jacksonville Center
01:00 29.9281 -82.6983 90° East 107 123 7,000  Level Jacksonville Center
01:01 29.9219 -82.6842 116° Southeast 116 133 7,000  Level Jacksonville Center
01:01 29.9178 -82.6650 104° East 107 123 7,000 60 Level Jacksonville Center
01:02 29.9114 -82.6506 117° Southeast 115 132 7,100  Climbing Jacksonville Center
01:02 29.9092 -82.6289 97° East 107 123 7,000  Descending Jacksonville Center
01:03 29.9031 -82.6122 113° Southeast 118 136 7,100  Climbing Jacksonville Center
01:03 29.9008 -82.5908 97° East 107 123 7,000  Descending Jacksonville Center
01:04 29.8986 -82.5739 99° East 118 136 7,100  Climbing Jacksonville Center
01:04 29.8944 -82.5547 104° East 107 123 7,000  Descending Jacksonville Center
01:05 29.8922 -82.5403 100° East 117 135 7,100  Climbing Jacksonville Center
01:05 29.8881 -82.5189 103° East 107 123 7,000 -120 Descending Jacksonville Center
01:06 29.8839 -82.5019 106° East 121 139 7,000 -240 Level Jacksonville Center
01:07 29.8733 -82.4639 108° East 121 139 6,700 -480 Descending Jacksonville Center
01:08 29.8647 -82.4281 105° East 120 138 6,100 -360 Descending Jacksonville Center
01:09 29.8564 -82.3897 104° East 114 131 6,000  Descending Jacksonville Center
01:10 29.8500 -82.3539 102° East 121 139 6,100  Climbing Jacksonville Center
01:11 29.8436 -82.3178 102° East 119 137 6,000 -60 Descending Jacksonville Center
01:12 29.8350 -82.2772 104° East 121 139 6,000  Level Jacksonville Center
01:13 29.8286 -82.2414 102° East 118 136 6,000  Level Jacksonville Center
01:14 29.8200 -82.2031 105° East 121 139 6,100  Climbing Jacksonville Center
01:15 29.8094 -82.1650 108° East 120 138 6,000 -60 Descending Jacksonville Center
01:16 29.7967 -82.1339 115° Southeast 120 138 6,000  Level Jacksonville Center
01:17 29.7797 -82.1006 120° Southeast 120 138 6,000  Level Jacksonville Center
01:18 29.7606 -82.0672 124° Southeast 119 137 6,100  Climbing Jacksonville Center
01:19 29.7458 -82.0339 117° Southeast 121 139 6,100  Level Jacksonville Center
01:20 29.7269 -82.0006 123° Southeast 124 143 6,100  Level Jacksonville Center
01:21 29.7119 -81.9622 114° Southeast 123 142 6,100  Level Jacksonville Center
01:22 29.6928 -81.9267 122° Southeast 123 142 6,100  Level Jacksonville Center
01:23 29.6781 -81.8933 117° Southeast 122 140 6,100  Level Jacksonville Center
01:24 29.6631 -81.8575 116° Southeast 124 143 6,100  Level Jacksonville Center
01:25 29.6461 -81.8219 119° Southeast 122 140 6,100  Level Jacksonville Center
01:26 29.6292 -81.7911 122° Southeast 122 140 6,100  Level Jacksonville Center
01:27 29.6142 -81.7556 116° Southeast 122 140 6,100 -60 Level Jacksonville Center
01:28 29.5931 -81.7222 126° Southeast 126 145 6,000 -60 Descending Jacksonville Center
01:29 29.5781 -81.6867 116° Southeast 120 138 6,000  Level Jacksonville Center
01:30 29.5631 -81.6533 117° Southeast 121 139 6,000 60 Level Jacksonville Center
01:30 29.5589 -81.6439 117° Southeast 120 138 6,100 60 Climbing Jacksonville Center
01:31 29.5461 -81.6203 122° Southeast 118 136 6,100 -60 Level Jacksonville Center
01:32 29.5292 -81.5869 120° Southeast 120 138 6,000  Descending Jacksonville Center
01:33 29.5142 -81.5514 116° Southeast 123 142 6,100  Climbing Jacksonville Center
01:34 29.4972 -81.5183 120° Southeast 121 139 6,000 -60 Descending Jacksonville Center
01:35 29.4822 -81.4803 114° Southeast 126 145 6,000  Level Jacksonville Center
01:36 29.4631 -81.4494 126° Southeast 122 140 6,000 -240 Level Jacksonville Center
01:37 29.4439 -81.4142 122° Southeast 125 144 5,600 -480 Descending Jacksonville Center
01:38 29.4244 -81.3808 124° Southeast 124 143 5,100 -300 Descending Jacksonville Center
01:39 29.4097 -81.3503 119° Southeast 119 137 5,000 -60 Descending Jacksonville Center
01:40 29.3906 -81.3194 126° Southeast 116 133 5,000  Level Jacksonville Center
01:41 29.3714 -81.2864 124° Southeast 115 132 5,100  Climbing Jacksonville Center
01:42 29.3522 -81.2581 128° Southeast 119 137 5,000 -60 Descending Jacksonville Center
01:43 29.3328 -81.2253 124° Southeast 120 138 5,000  Level Jacksonville Center
01:44 29.3178 -81.1919 117° Southeast 119 137 5,000  Level Jacksonville Center
01:45 29.3008 -81.1592 121° Southeast 119 137 5,000  Level Jacksonville Center
01:46 29.2814 -81.1261 124° Southeast 120 138 5,000 -300 Level Jacksonville Center
01:47 29.2622 -81.0931 124° Southeast 121 139 4,500 -600 Descending Jacksonville Center
01:48 29.2431 -81.0625 126° Southeast 122 140 3,900 -480 Descending Jacksonville Center
01:49 29.2197 -81.0464 149° Southeast 116 133 3,600 -600 Descending Jacksonville Center
01:50 29.1925 -81.0325 156° South 107 123 2,800 -840 Descending Jacksonville Center
01:51 29.1672 -81.0186 154° Southeast 108 124 2,000 -720 Descending Jacksonville Center
01:52 29.1458 -80.9906 131° Southeast 105 121 1,400 -600 Descending Jacksonville Center
01:54 29.1048 -80.9745 147° Southeast  Level FlightAware Approximate
02:01 29.0557 -80.9489 147° Southeast  Level Estimated
02:02 29.0557 -80.9489 147° Southeast  Level Estimated
02:03 29.0557 -80.9489 147° Southeast  Level Estimated